createdAt,value
2017-02-03T00:00:15.558Z,0
2017-02-03T00:01:15.915Z,0
2017-02-03T00:02:15.538Z,0
2017-02-03T00:03:15.897Z,0
2017-02-03T00:04:15.858Z,0
2017-02-03T00:05:15.874Z,0
2017-02-03T00:06:15.451Z,0
2017-02-03T00:07:15.802Z,0
2017-02-03T00:08:15.815Z,0
2017-02-03T00:09:15.413Z,0
2017-02-03T00:10:15.752Z,0
2017-02-03T00:11:15.731Z,0
2017-02-03T00:12:15.344Z,0
2017-02-03T00:13:15.317Z,0
2017-02-03T00:14:15.667Z,0
2017-02-03T00:15:15.667Z,0
2017-02-03T00:16:15.272Z,0
2017-02-03T00:17:15.241Z,0
2017-02-03T00:18:14.847Z,0
2017-02-03T00:19:15.588Z,0
2017-02-03T00:20:15.560Z,0
2017-02-03T00:21:15.547Z,0
2017-02-03T00:22:15.521Z,0
2017-02-03T00:23:15.524Z,0
2017-02-03T00:24:15.102Z,0
2017-02-03T00:25:15.483Z,0
2017-02-03T00:26:15.448Z,0
2017-02-03T00:27:15.413Z,0
2017-02-03T00:28:15.408Z,0
2017-02-03T00:29:15.391Z,0
2017-02-03T00:30:14.980Z,0
2017-02-03T00:31:15.340Z,0
2017-02-03T00:32:15.325Z,0
2017-02-03T00:33:15.321Z,0
2017-02-03T00:34:14.902Z,0
2017-02-03T00:35:14.891Z,0
2017-02-03T00:36:15.261Z,0
2017-02-03T00:37:14.847Z,0
2017-02-03T00:38:15.225Z,0
2017-02-03T00:39:14.858Z,0
2017-02-03T00:40:15.177Z,0
2017-02-03T00:41:15.166Z,0
2017-02-03T00:42:15.150Z,0
2017-02-03T00:43:15.107Z,0
2017-02-03T00:44:15.100Z,0
2017-02-03T00:45:15.075Z,0
2017-02-03T00:46:14.687Z,0
2017-02-03T00:47:15.034Z,0
2017-02-03T00:48:15.027Z,0
2017-02-03T00:49:15.008Z,0
2017-02-03T00:50:14.999Z,0
2017-02-03T00:51:14.583Z,0
2017-02-03T00:52:14.955Z,0
2017-02-03T00:53:14.946Z,0
2017-02-03T00:54:14.526Z,0
2017-02-03T00:55:14.900Z,0
2017-02-03T00:56:14.506Z,0
2017-02-03T00:57:14.860Z,0
2017-02-03T00:58:14.847Z,0
2017-02-03T00:59:14.443Z,0
2017-02-03T01:00:14.821Z,0
2017-02-03T01:01:14.787Z,0
2017-02-03T01:02:14.384Z,0
2017-02-03T01:03:14.753Z,0
2017-02-03T01:04:14.745Z,0
2017-02-03T01:05:14.705Z,0
2017-02-03T01:06:14.674Z,0
2017-02-03T01:07:14.671Z,0
2017-02-03T01:08:14.638Z,0
2017-02-03T01:09:14.626Z,0
2017-02-03T01:10:14.620Z,0
2017-02-03T01:11:14.587Z,0
2017-02-03T01:12:14.571Z,0
2017-02-03T01:13:14.559Z,0
2017-02-03T01:14:14.528Z,0
2017-02-03T01:15:14.511Z,0
2017-02-03T01:16:14.485Z,0
2017-02-03T01:17:14.487Z,0
2017-02-03T01:18:14.476Z,0
2017-02-03T01:19:14.458Z,0
2017-02-03T01:20:14.427Z,0
2017-02-03T01:21:14.418Z,0
2017-02-03T01:22:14.391Z,0
2017-02-03T01:23:14.360Z,0
2017-02-03T01:24:14.341Z,0
2017-02-03T01:25:14.331Z,0
2017-02-03T01:26:14.318Z,0
2017-02-03T01:27:14.286Z,0
2017-02-03T01:28:14.284Z,0
2017-02-03T01:29:14.248Z,0
2017-02-03T01:30:14.249Z,0
2017-02-03T01:31:14.219Z,0
2017-02-03T01:32:14.188Z,0
2017-02-03T01:33:14.169Z,0
2017-02-03T01:34:13.782Z,0
2017-02-03T01:35:14.126Z,0
2017-02-03T01:36:14.099Z,0
2017-02-03T01:37:14.088Z,0
2017-02-03T01:38:13.686Z,0
2017-02-03T01:39:14.056Z,0
2017-02-03T01:40:14.047Z,0
2017-02-03T01:41:14.009Z,0
2017-02-03T01:42:13.996Z,0
2017-02-03T01:43:13.990Z,0
2017-02-03T01:44:13.947Z,0
2017-02-03T01:45:13.949Z,0
2017-02-03T01:46:13.908Z,0
2017-02-03T01:47:13.901Z,0
2017-02-03T01:48:13.893Z,0
2017-02-03T01:49:13.864Z,0
2017-02-03T01:50:13.855Z,0
2017-02-03T01:51:13.838Z,0
2017-02-03T01:52:13.845Z,0
2017-02-03T01:53:13.801Z,0
2017-02-03T01:54:13.768Z,0
2017-02-03T01:55:13.770Z,0
2017-02-03T01:56:13.737Z,0
2017-02-03T01:57:13.724Z,0
2017-02-03T01:58:13.702Z,0
2017-02-03T01:59:13.680Z,0
2017-02-03T02:00:13.266Z,0
2017-02-03T02:01:13.635Z,0
2017-02-03T02:02:13.616Z,0
2017-02-03T02:03:13.581Z,0
2017-02-03T02:04:13.583Z,0
2017-02-03T02:05:13.560Z,0
2017-02-03T02:06:13.158Z,0
2017-02-03T02:07:13.528Z,0
2017-02-03T02:08:13.498Z,0
2017-02-03T02:09:13.504Z,0
2017-02-03T02:10:13.460Z,0
2017-02-03T02:11:13.456Z,0
2017-02-03T02:12:13.431Z,0
2017-02-03T02:13:13.396Z,0
2017-02-03T02:14:12.983Z,0
2017-02-03T02:15:13.369Z,0
2017-02-03T02:16:12.964Z,0
2017-02-03T02:17:13.331Z,0
2017-02-03T02:18:12.925Z,0
2017-02-03T02:19:13.309Z,0
2017-02-03T02:20:12.894Z,0
2017-02-03T02:21:13.241Z,0
2017-02-03T02:22:13.240Z,0
2017-02-03T02:23:13.217Z,0
2017-02-03T02:24:13.197Z,0
2017-02-03T02:25:12.796Z,0
2017-02-03T02:26:13.138Z,0
2017-02-03T02:27:12.742Z,0
2017-02-03T02:28:12.340Z,0
2017-02-03T02:29:12.703Z,0
2017-02-03T02:30:12.670Z,0
2017-02-03T02:31:13.037Z,0
2017-02-03T02:32:13.042Z,0
2017-02-03T02:33:13.009Z,0
2017-02-03T02:34:12.994Z,0
2017-02-03T02:35:12.594Z,0
2017-02-03T02:36:12.960Z,0
2017-02-03T02:37:12.947Z,0
2017-02-03T02:38:12.523Z,0
2017-02-03T02:39:12.901Z,0
2017-02-03T02:40:12.477Z,0
2017-02-03T02:41:12.856Z,0
2017-02-03T02:42:12.883Z,0
2017-02-03T02:43:12.443Z,0
2017-02-03T02:44:12.803Z,0
2017-02-03T02:45:12.401Z,0
2017-02-03T02:46:12.766Z,0
2017-02-03T02:47:12.745Z,0
2017-02-03T02:48:12.716Z,0
2017-02-03T02:49:12.703Z,0
2017-02-03T02:50:12.684Z,0
2017-02-03T02:51:12.654Z,0
2017-02-03T02:52:12.652Z,0
2017-02-03T02:53:12.633Z,0
2017-02-03T02:54:12.605Z,0
2017-02-03T02:55:12.598Z,0
2017-02-03T02:56:12.583Z,0
2017-02-03T02:57:12.573Z,0
2017-02-03T02:58:12.152Z,0
2017-02-03T02:59:12.523Z,0
2017-02-03T03:00:12.495Z,0
2017-02-03T03:01:12.098Z,0
2017-02-03T03:02:12.463Z,0
2017-02-03T03:03:12.452Z,0
2017-02-03T03:04:12.419Z,0
2017-02-03T03:05:12.393Z,0
2017-02-03T03:06:12.389Z,0
2017-02-03T03:07:12.408Z,0
2017-02-03T03:08:12.332Z,0
2017-02-03T03:09:12.328Z,0
2017-02-03T03:10:11.908Z,0
2017-02-03T03:11:12.300Z,0
2017-02-03T03:12:11.879Z,0
2017-02-03T03:13:12.264Z,0
2017-02-03T03:14:12.232Z,0
2017-02-03T03:15:12.218Z,0
2017-02-03T03:16:12.196Z,0
2017-02-03T03:17:12.192Z,0
2017-02-03T03:18:12.170Z,0
2017-02-03T03:19:12.141Z,0
2017-02-03T03:20:12.119Z,0
2017-02-03T03:21:12.114Z,0
2017-02-03T03:22:12.086Z,0
2017-02-03T03:23:12.060Z,0
2017-02-03T03:24:11.663Z,0
2017-02-03T03:25:12.005Z,0
2017-02-03T03:26:12.008Z,0
2017-02-03T03:27:11.987Z,0
2017-02-03T03:28:11.963Z,0
2017-02-03T03:29:11.970Z,0
2017-02-03T03:30:11.916Z,0
2017-02-03T03:31:11.896Z,0
2017-02-03T03:32:11.889Z,0
2017-02-03T03:33:11.888Z,0
2017-02-03T03:34:11.471Z,0
2017-02-03T03:35:11.831Z,0
2017-02-03T03:36:11.809Z,0
2017-02-03T03:37:11.785Z,0
2017-02-03T03:38:11.773Z,0
2017-02-03T03:39:11.756Z,0
2017-02-03T03:40:11.737Z,0
2017-02-03T03:41:11.721Z,0
2017-02-03T03:42:11.321Z,0
2017-02-03T03:43:11.703Z,0
2017-02-03T03:44:11.662Z,0
2017-02-03T03:45:11.654Z,0
2017-02-03T03:46:11.643Z,0
2017-02-03T03:47:11.609Z,0
2017-02-03T03:48:11.588Z,0
2017-02-03T03:49:11.569Z,0
2017-02-03T03:50:10.788Z,0
2017-02-03T03:51:11.549Z,0
2017-02-03T03:52:11.134Z,0
2017-02-03T03:53:11.502Z,0
2017-02-03T03:54:11.484Z,0
2017-02-03T03:55:11.480Z,0
2017-02-03T03:56:11.085Z,0
2017-02-03T03:57:11.433Z,0
2017-02-03T03:58:11.014Z,0
2017-02-03T03:59:10.996Z,0
2017-02-03T04:00:11.355Z,0
2017-02-03T04:01:11.335Z,0
2017-02-03T04:02:11.343Z,0
2017-02-03T04:03:11.320Z,0
2017-02-03T04:04:11.296Z,0
2017-02-03T04:05:11.269Z,0
2017-02-03T04:06:11.271Z,0
2017-02-03T04:07:11.223Z,0
2017-02-03T04:08:11.214Z,0
2017-02-03T04:09:11.206Z,0
2017-02-03T04:10:10.797Z,0
2017-02-03T04:11:11.165Z,0
2017-02-03T04:12:10.750Z,0
2017-02-03T04:13:11.130Z,0
2017-02-03T04:14:10.755Z,0
2017-02-03T04:15:10.713Z,0
2017-02-03T04:16:11.050Z,0
2017-02-03T04:17:11.044Z,0
2017-02-03T04:18:11.018Z,0
2017-02-03T04:19:11.009Z,0
2017-02-03T04:20:10.984Z,0
2017-02-03T04:21:10.580Z,0
2017-02-03T04:22:10.941Z,0
2017-02-03T04:23:10.944Z,0
2017-02-03T04:24:10.150Z,0
2017-02-03T04:25:10.163Z,0
2017-02-03T04:26:10.520Z,0
2017-02-03T04:27:10.867Z,0
2017-02-03T04:28:10.852Z,0
2017-02-03T04:29:10.822Z,0
2017-02-03T04:30:10.399Z,0
2017-02-03T04:31:10.430Z,0
2017-02-03T04:32:10.589Z,0
2017-02-03T04:33:10.739Z,0
2017-02-03T04:34:10.717Z,0
2017-02-03T04:35:10.329Z,0
2017-02-03T04:36:10.309Z,0
2017-02-03T04:37:10.655Z,0
2017-02-03T04:38:10.651Z,0
2017-02-03T04:39:10.248Z,0
2017-02-03T04:40:09.827Z,0
2017-02-03T04:41:10.210Z,0
2017-02-03T04:42:10.224Z,0
2017-02-03T04:43:10.168Z,0
2017-02-03T04:44:10.154Z,0
2017-02-03T04:45:10.143Z,0
2017-02-03T04:46:10.107Z,0
2017-02-03T04:47:10.104Z,0
2017-02-03T04:48:09.735Z,0
2017-02-03T04:49:10.054Z,0
2017-02-03T04:50:10.042Z,0
2017-02-03T04:51:10.414Z,0
2017-02-03T04:52:10.383Z,0
2017-02-03T04:53:10.363Z,0
2017-02-03T04:54:09.966Z,0
2017-02-03T04:55:09.563Z,0
2017-02-03T04:56:09.926Z,0
2017-02-03T04:57:10.307Z,0
2017-02-03T04:58:10.269Z,0
2017-02-03T04:59:10.271Z,0
2017-02-03T05:00:10.053Z,0
2017-02-03T05:01:10.212Z,0
2017-02-03T05:02:09.805Z,0
2017-02-03T05:03:09.799Z,0
2017-02-03T05:04:10.157Z,0
2017-02-03T05:05:09.748Z,0
2017-02-03T05:06:10.330Z,0
2017-02-03T05:07:09.716Z,0
2017-02-03T05:08:10.077Z,0
2017-02-03T05:09:09.686Z,0
2017-02-03T05:10:09.664Z,0
2017-02-03T05:11:09.832Z,0
2017-02-03T05:12:10.010Z,0
2017-02-03T05:13:09.990Z,0
2017-02-03T05:14:09.572Z,0
2017-02-03T05:15:09.946Z,0
2017-02-03T05:16:09.540Z,0
2017-02-03T05:17:09.912Z,0
2017-02-03T05:18:09.501Z,0
2017-02-03T05:19:09.862Z,0
2017-02-03T05:20:09.478Z,0
2017-02-03T05:21:09.841Z,0
2017-02-03T05:22:09.426Z,0
2017-02-03T05:23:09.805Z,0
2017-02-03T05:24:09.781Z,0
2017-02-03T05:25:09.753Z,0
2017-02-03T05:26:09.733Z,0
2017-02-03T05:27:09.721Z,0
2017-02-03T05:28:09.706Z,0
2017-02-03T05:29:09.669Z,0
2017-02-03T05:30:09.658Z,0
2017-02-03T05:31:09.656Z,0
2017-02-03T05:32:09.228Z,0
2017-02-03T05:33:09.647Z,0
2017-02-03T05:34:09.574Z,0
2017-02-03T05:35:09.569Z,0
2017-02-03T05:36:09.149Z,0
2017-02-03T05:37:09.531Z,0
2017-02-03T05:38:09.129Z,0
2017-02-03T05:39:09.705Z,0
2017-02-03T05:40:09.690Z,0
2017-02-03T05:41:09.456Z,0
2017-02-03T05:42:09.043Z,0
2017-02-03T05:43:09.438Z,0
2017-02-03T05:44:09.016Z,0
2017-02-03T05:45:09.373Z,0
2017-02-03T05:46:09.355Z,0
2017-02-03T05:47:09.347Z,0
2017-02-03T05:48:09.316Z,0
2017-02-03T05:49:09.310Z,0
2017-02-03T05:50:08.516Z,0
2017-02-03T05:51:09.249Z,0
2017-02-03T05:52:08.856Z,0
2017-02-03T05:53:09.231Z,0
2017-02-03T05:54:08.825Z,0
2017-02-03T05:55:09.170Z,0
2017-02-03T05:56:09.173Z,0
2017-02-03T05:57:09.152Z,0
2017-02-03T05:58:09.131Z,0
2017-02-03T05:59:09.102Z,0
2017-02-03T06:00:08.710Z,0
2017-02-03T06:01:09.054Z,0
2017-02-03T06:02:09.046Z,0
2017-02-03T06:03:09.039Z,0
2017-02-03T06:04:09.021Z,0
2017-02-03T06:05:09.002Z,0
2017-02-03T06:06:08.583Z,0
2017-02-03T06:07:08.948Z,4
2017-02-03T06:08:08.944Z,4
2017-02-03T06:09:08.917Z,0
2017-02-03T06:10:08.908Z,4
2017-02-03T06:11:08.883Z,4
2017-02-03T06:12:08.846Z,4
2017-02-03T06:13:09.029Z,8
2017-02-03T06:14:08.433Z,8
2017-02-03T06:15:08.809Z,8
2017-02-03T06:16:08.773Z,12
2017-02-03T06:17:08.755Z,16
2017-02-03T06:18:08.946Z,20
2017-02-03T06:19:08.949Z,24
2017-02-03T06:20:08.707Z,28
2017-02-03T06:21:08.691Z,32
2017-02-03T06:22:08.676Z,36
2017-02-03T06:23:08.656Z,44
2017-02-03T06:24:08.638Z,52
2017-02-03T06:25:08.246Z,60
2017-02-03T06:26:08.594Z,72
2017-02-03T06:27:08.579Z,88
2017-02-03T06:28:08.176Z,104
2017-02-03T06:29:08.547Z,120
2017-02-03T06:30:08.532Z,136
2017-02-03T06:31:08.535Z,156
2017-02-03T06:32:08.096Z,176
2017-02-03T06:33:08.468Z,196
2017-02-03T06:34:08.452Z,224
2017-02-03T06:35:08.050Z,256
2017-02-03T06:36:08.020Z,280
2017-02-03T06:37:08.405Z,304
2017-02-03T06:38:08.389Z,332
2017-02-03T06:39:08.342Z,368
2017-02-03T06:40:22.473Z,412
2017-02-03T06:41:08.537Z,436
2017-02-03T06:42:08.307Z,468
2017-02-03T06:43:08.286Z,496
2017-02-03T06:44:08.262Z,532
2017-02-03T06:45:08.236Z,568
2017-02-03T06:46:08.229Z,608
2017-02-03T06:47:08.409Z,652
2017-02-03T06:48:08.186Z,708
2017-02-03T06:49:08.181Z,772
2017-02-03T06:50:08.157Z,848
2017-02-03T06:51:08.128Z,936
2017-02-03T06:52:08.304Z,1040
2017-02-03T06:53:08.319Z,1148
2017-02-03T06:54:07.697Z,1248
2017-02-03T06:55:08.059Z,1360
2017-02-03T06:56:08.029Z,1480
2017-02-03T06:57:08.027Z,1608
2017-02-03T06:58:07.604Z,1720
2017-02-03T06:59:08.005Z,1824
2017-02-03T07:00:07.580Z,1924
2017-02-03T07:01:07.955Z,2008
2017-02-03T07:02:07.916Z,2092
2017-02-03T07:03:07.918Z,2180
2017-02-03T07:04:07.909Z,2284
2017-02-03T07:05:07.491Z,2396
2017-02-03T07:06:07.865Z,2484
2017-02-03T07:07:07.828Z,2544
2017-02-03T07:08:07.842Z,2652
2017-02-03T07:09:07.812Z,2796
2017-02-03T07:10:07.775Z,2932
2017-02-03T07:11:07.760Z,3064
2017-02-03T07:12:07.783Z,3172
2017-02-03T07:13:07.731Z,3268
2017-02-03T07:14:07.704Z,3372
2017-02-03T07:15:07.698Z,3496
2017-02-03T07:16:07.698Z,3680
2017-02-03T07:17:07.660Z,3936
2017-02-03T07:18:07.625Z,4212
2017-02-03T07:19:07.628Z,4476
2017-02-03T07:20:07.598Z,4752
2017-02-03T07:21:07.807Z,5068
2017-02-03T07:22:07.555Z,5424
2017-02-03T07:23:07.558Z,5792
2017-02-03T07:24:07.548Z,6164
2017-02-03T07:25:07.530Z,6472
2017-02-03T07:26:07.496Z,6712
2017-02-03T07:27:07.457Z,6900
2017-02-03T07:28:07.465Z,7108
2017-02-03T07:29:07.448Z,7176
2017-02-03T07:30:07.405Z,7272
2017-02-03T07:31:07.396Z,7412
2017-02-03T07:32:07.369Z,7440
2017-02-03T07:33:07.362Z,7464
2017-02-03T07:34:06.968Z,7372
2017-02-03T07:35:07.334Z,7208
2017-02-03T07:36:07.309Z,7132
2017-02-03T07:37:07.286Z,7044
2017-02-03T07:38:07.280Z,6892
2017-02-03T07:39:07.262Z,6792
2017-02-03T07:40:07.251Z,6764
2017-02-03T07:41:07.265Z,6744
2017-02-03T07:42:07.204Z,6828
2017-02-03T07:43:07.187Z,6884
2017-02-03T07:44:07.154Z,6948
2017-02-03T07:45:07.154Z,7076
2017-02-03T07:46:07.125Z,7204
2017-02-03T07:47:07.109Z,7316
2017-02-03T07:48:07.086Z,7464
2017-02-03T07:49:07.087Z,7608
2017-02-03T07:50:07.052Z,7756
2017-02-03T07:51:07.053Z,7920
2017-02-03T07:52:07.056Z,8072
2017-02-03T07:53:07.016Z,8232
2017-02-03T07:54:06.987Z,8448
2017-02-03T07:55:06.969Z,8728
2017-02-03T07:56:06.960Z,9096
2017-02-03T07:57:06.934Z,9528
2017-02-03T07:58:06.912Z,10032
2017-02-03T07:59:06.875Z,10588
2017-02-03T08:00:06.887Z,11136
2017-02-03T08:01:06.864Z,11652
2017-02-03T08:02:06.843Z,12124
2017-02-03T08:03:06.843Z,12588
2017-02-03T08:04:06.817Z,12952
2017-02-03T08:05:06.793Z,13180
2017-02-03T08:06:06.768Z,13332
2017-02-03T08:07:06.741Z,13392
2017-02-03T08:08:06.738Z,13356
2017-02-03T08:09:06.712Z,13212
2017-02-03T08:10:06.699Z,12944
2017-02-03T08:11:06.707Z,12808
2017-02-03T08:12:06.664Z,12748
2017-02-03T08:13:06.639Z,12752
2017-02-03T08:14:06.672Z,12836
2017-02-03T08:15:06.607Z,12804
2017-02-03T08:16:06.585Z,12848
2017-02-03T08:17:06.589Z,12956
2017-02-03T08:18:06.559Z,13228
2017-02-03T08:19:06.529Z,13692
2017-02-03T08:20:06.525Z,14256
2017-02-03T08:21:06.516Z,14864
2017-02-03T08:22:06.484Z,15580
2017-02-03T08:23:06.458Z,16368
2017-02-03T08:24:06.440Z,17504
2017-02-03T08:25:06.428Z,18368
2017-02-03T08:26:06.426Z,19168
2017-02-03T08:27:06.391Z,19712
2017-02-03T08:28:06.384Z,20288
2017-02-03T08:29:05.964Z,21024
2017-02-03T08:30:06.337Z,21536
2017-02-03T08:31:06.328Z,22080
2017-02-03T08:32:06.338Z,22304
2017-02-03T08:33:06.292Z,22400
2017-02-03T08:34:06.266Z,22464
2017-02-03T08:35:06.262Z,22368
2017-02-03T08:36:06.243Z,22144
2017-02-03T08:37:06.206Z,21984
2017-02-03T08:38:06.208Z,21920
2017-02-03T08:39:06.188Z,22016
2017-02-03T08:40:05.775Z,22304
2017-02-03T08:41:06.158Z,22816
2017-02-03T08:42:06.148Z,23616
2017-02-03T08:43:06.123Z,24256
2017-02-03T08:44:06.095Z,25312
2017-02-03T08:45:06.080Z,26624
2017-02-03T08:46:06.061Z,26080
2017-02-03T08:47:06.054Z,29120
2017-02-03T08:48:06.065Z,29504
2017-02-03T08:49:05.999Z,30048
2017-02-03T08:50:05.605Z,30560
2017-02-03T08:51:05.966Z,31008
2017-02-03T08:52:05.967Z,30496
2017-02-03T08:53:05.941Z,29248
2017-02-03T08:54:05.931Z,28448
2017-02-03T08:55:05.913Z,30464
2017-02-03T08:56:05.889Z,29184
2017-02-03T08:57:05.874Z,29120
2017-02-03T08:58:05.866Z,27488
2017-02-03T08:59:05.842Z,26528
2017-02-03T09:00:05.438Z,25600
2017-02-03T09:01:05.857Z,24448
2017-02-03T09:02:05.790Z,23296
2017-02-03T09:03:05.777Z,22080
2017-02-03T09:04:05.749Z,21088
2017-02-03T09:05:05.729Z,20352
2017-02-03T09:06:05.724Z,19904
2017-02-03T09:07:05.714Z,19808
2017-02-03T09:08:05.719Z,20128
2017-02-03T09:09:05.679Z,20576
2017-02-03T09:10:05.278Z,21248
2017-02-03T09:11:05.637Z,22016
2017-02-03T09:12:05.638Z,28768
2017-02-03T09:13:05.595Z,26720
2017-02-03T09:14:05.599Z,26208
2017-02-03T09:15:05.563Z,24992
2017-02-03T09:16:05.572Z,24736
2017-02-03T09:17:05.580Z,24256
2017-02-03T09:18:05.531Z,24064
2017-02-03T09:19:05.505Z,24064
2017-02-03T09:20:05.511Z,24384
2017-02-03T09:21:05.489Z,24800
2017-02-03T09:22:05.460Z,25216
2017-02-03T09:23:05.476Z,25600
2017-02-03T09:24:05.437Z,25568
2017-02-03T09:25:05.037Z,25472
2017-02-03T09:26:05.393Z,25664
2017-02-03T09:27:05.392Z,25664
2017-02-03T09:28:05.364Z,25440
2017-02-03T09:29:05.344Z,24832
2017-02-03T09:30:05.348Z,24256
2017-02-03T09:31:05.321Z,23648
2017-02-03T09:32:05.314Z,23520
2017-02-03T09:33:05.287Z,22944
2017-02-03T09:34:05.252Z,22528
2017-02-03T09:35:05.268Z,22240
2017-02-03T09:36:05.229Z,21888
2017-02-03T09:37:05.226Z,21568
2017-02-03T09:38:05.191Z,21184
2017-02-03T09:39:05.184Z,20704
2017-02-03T09:40:05.155Z,20160
2017-02-03T09:41:05.144Z,19776
2017-02-03T09:42:05.129Z,19616
2017-02-03T09:43:05.114Z,19520
2017-02-03T09:44:05.084Z,19584
2017-02-03T09:45:05.066Z,19808
2017-02-03T09:46:05.038Z,20288
2017-02-03T09:47:05.027Z,20800
2017-02-03T09:48:05.011Z,21184
2017-02-03T09:49:05.011Z,21696
2017-02-03T09:50:04.986Z,21888
2017-02-03T09:51:04.975Z,22080
2017-02-03T09:52:04.552Z,22528
2017-02-03T09:53:04.929Z,23136
2017-02-03T09:54:04.913Z,23808
2017-02-03T09:55:04.877Z,24576
2017-02-03T09:56:04.487Z,25440
2017-02-03T09:57:04.841Z,26112
2017-02-03T09:58:04.843Z,26976
2017-02-03T09:59:04.810Z,28224
2017-02-03T10:00:04.805Z,29536
2017-02-03T10:01:04.414Z,30656
2017-02-03T10:02:04.769Z,31744
2017-02-03T10:03:04.348Z,33280
2017-02-03T10:04:04.727Z,35232
2017-02-03T10:05:04.698Z,36800
2017-02-03T10:06:04.323Z,37728
2017-02-03T10:07:04.672Z,39008
2017-02-03T10:08:04.265Z,39520
2017-02-03T10:09:04.256Z,38720
2017-02-03T10:10:04.635Z,35264
2017-02-03T10:11:04.633Z,32992
2017-02-03T10:12:04.228Z,32256
2017-02-03T10:13:04.184Z,32064
2017-02-03T10:14:04.566Z,32448
2017-02-03T10:15:04.189Z,32000
2017-02-03T10:16:04.527Z,30496
2017-02-03T10:17:04.142Z,28736
2017-02-03T10:18:04.110Z,27392
2017-02-03T10:19:04.104Z,26400
2017-02-03T10:20:03.704Z,25664
2017-02-03T10:21:04.062Z,25792
2017-02-03T10:22:04.452Z,25888
2017-02-03T10:23:04.055Z,25856
2017-02-03T10:24:04.032Z,26464
2017-02-03T10:25:04.401Z,27776
2017-02-03T10:26:04.388Z,30720
2017-02-03T10:27:04.364Z,32352
2017-02-03T10:28:04.341Z,29600
2017-02-03T10:29:04.346Z,30144
2017-02-03T10:30:04.342Z,32128
2017-02-03T10:31:04.317Z,30656
2017-02-03T10:32:04.298Z,29728
2017-02-03T10:33:04.291Z,29600
2017-02-03T10:34:04.255Z,32000
2017-02-03T10:35:04.251Z,30368
2017-02-03T10:36:04.233Z,29760
2017-02-03T10:37:04.214Z,29536
2017-02-03T10:38:04.208Z,30400
2017-02-03T10:39:04.195Z,29248
2017-02-03T10:40:04.173Z,28640
2017-02-03T10:41:04.172Z,28928
2017-02-03T10:42:04.144Z,29696
2017-02-03T10:43:04.120Z,30816
2017-02-03T10:44:04.104Z,31712
2017-02-03T10:45:03.707Z,31936
2017-02-03T10:46:04.076Z,32256
2017-02-03T10:47:04.071Z,32160
2017-02-03T10:48:04.036Z,31904
2017-02-03T10:49:04.025Z,31904
2017-02-03T10:50:04.007Z,31840
2017-02-03T10:51:04.027Z,32224
2017-02-03T10:52:03.598Z,31968
2017-02-03T10:53:03.598Z,31840
2017-02-03T10:54:03.179Z,31840
2017-02-03T10:55:03.556Z,32224
2017-02-03T10:56:03.528Z,31296
2017-02-03T10:57:03.909Z,30880
2017-02-03T10:58:03.899Z,31232
2017-02-03T10:59:03.871Z,33248
2017-02-03T11:00:03.842Z,35136
2017-02-03T11:01:03.851Z,35936
2017-02-03T11:02:03.817Z,35584
2017-02-03T11:03:03.438Z,35968
2017-02-03T11:04:03.784Z,35712
2017-02-03T11:05:03.782Z,33984
2017-02-03T11:06:03.781Z,36736
2017-02-03T11:07:03.769Z,38112
2017-02-03T11:08:03.361Z,39712
2017-02-03T11:09:03.721Z,41312
2017-02-03T11:10:03.319Z,41440
2017-02-03T11:11:03.696Z,43008
2017-02-03T11:12:03.292Z,48512
2017-02-03T11:13:03.674Z,43872
2017-02-03T11:14:03.662Z,51872
2017-02-03T11:15:03.645Z,51488
2017-02-03T11:16:03.618Z,49824
2017-02-03T11:17:03.622Z,44352
2017-02-03T11:18:03.597Z,45408
2017-02-03T11:19:03.200Z,49504
2017-02-03T11:20:03.582Z,54464
2017-02-03T11:21:03.570Z,46176
2017-02-03T11:22:03.546Z,43488
2017-02-03T11:23:03.547Z,48288
2017-02-03T11:24:03.543Z,39328
2017-02-03T11:25:03.522Z,43936
2017-02-03T11:26:03.506Z,46016
2017-02-03T11:27:03.482Z,44768
2017-02-03T11:28:03.459Z,39936
2017-02-03T11:29:03.459Z,42976
2017-02-03T11:30:03.438Z,40064
2017-02-03T11:31:03.444Z,40448
2017-02-03T11:32:03.419Z,39648
2017-02-03T11:33:03.402Z,43232
2017-02-03T11:34:03.409Z,44000
2017-02-03T11:35:03.385Z,42912
2017-02-03T11:36:03.371Z,47360
2017-02-03T11:37:03.358Z,47872
2017-02-03T11:38:03.348Z,52064
2017-02-03T11:39:03.321Z,43680
2017-02-03T11:40:03.320Z,39904
2017-02-03T11:41:03.317Z,37504
2017-02-03T11:42:03.309Z,36480
2017-02-03T11:43:03.283Z,35360
2017-02-03T11:44:03.274Z,39488
2017-02-03T11:45:02.862Z,36320
2017-02-03T11:46:03.242Z,26784
2017-02-03T11:47:03.250Z,25280
2017-02-03T11:48:03.224Z,27040
2017-02-03T11:49:02.819Z,29504
2017-02-03T11:50:03.209Z,30336
2017-02-03T11:51:03.195Z,31264
2017-02-03T11:52:03.162Z,29376
2017-02-03T11:53:03.168Z,29600
2017-02-03T11:54:03.149Z,31104
2017-02-03T11:55:03.132Z,30112
2017-02-03T11:56:03.119Z,30304
2017-02-03T11:57:03.104Z,38464
2017-02-03T11:58:03.095Z,38592
2017-02-03T11:59:03.078Z,46016
2017-02-03T12:00:03.062Z,57760
2017-02-03T12:01:03.061Z,49216
2017-02-03T12:02:03.029Z,37632
2017-02-03T12:03:03.025Z,41408
2017-02-03T12:04:03.008Z,52384
2017-02-03T12:05:02.993Z,70144
2017-02-03T12:06:02.997Z,67072
2017-02-03T12:07:02.986Z,65216
2017-02-03T12:08:02.953Z,56128
2017-02-03T12:09:02.937Z,72896
2017-02-03T12:10:02.943Z,67904
2017-02-03T12:11:02.921Z,70336
2017-02-03T12:12:02.516Z,75936
2017-02-03T12:13:02.893Z,67040
2017-02-03T12:14:02.481Z,57760
2017-02-03T12:15:02.872Z,67328
2017-02-03T12:16:02.856Z,49024
2017-02-03T12:17:02.841Z,64768
2017-02-03T12:18:02.834Z,71840
2017-02-03T12:19:02.427Z,55328
2017-02-03T12:20:02.424Z,54816
2017-02-03T12:21:02.402Z,48288
2017-02-03T12:22:02.786Z,51904
2017-02-03T12:23:02.389Z,53216
2017-02-03T12:24:02.741Z,52512
2017-02-03T12:25:02.360Z,43328
2017-02-03T12:26:02.721Z,36288
2017-02-03T12:27:02.713Z,27552
2017-02-03T12:28:02.326Z,50336
2017-02-03T12:29:02.697Z,32288
2017-02-03T12:30:02.676Z,22784
2017-02-03T12:31:02.684Z,25216
2017-02-03T12:32:02.657Z,39328
2017-02-03T12:33:02.260Z,37600
2017-02-03T12:34:02.645Z,32576
2017-02-03T12:35:01.848Z,33536
2017-02-03T12:36:02.608Z,46784
2017-02-03T12:37:01.818Z,44416
2017-02-03T12:38:01.808Z,44224
2017-02-03T12:39:02.579Z,45536
2017-02-03T12:40:02.553Z,48576
2017-02-03T12:41:02.141Z,38528
2017-02-03T12:42:02.133Z,33632
2017-02-03T12:43:02.541Z,36416
2017-02-03T12:44:02.097Z,38624
2017-02-03T12:45:02.468Z,47552
2017-02-03T12:46:02.473Z,63424
2017-02-03T12:47:02.463Z,45792
2017-02-03T12:48:02.448Z,30336
2017-02-03T12:49:02.424Z,30208
2017-02-03T12:50:02.423Z,32960
2017-02-03T12:51:02.392Z,42112
2017-02-03T12:52:02.394Z,54496
2017-02-03T12:53:02.371Z,43136
2017-02-03T12:54:01.986Z,33728
2017-02-03T12:55:02.356Z,32416
2017-02-03T12:56:02.360Z,34112
2017-02-03T12:57:02.332Z,37408
2017-02-03T12:58:01.544Z,39808
2017-02-03T12:59:01.917Z,44960
2017-02-03T13:00:02.281Z,44576
2017-02-03T13:01:02.278Z,35456
2017-02-03T13:02:02.265Z,30944
2017-02-03T13:03:02.250Z,29664
2017-02-03T13:04:01.857Z,28256
2017-02-03T13:05:02.212Z,27424
2017-02-03T13:06:02.212Z,28096
2017-02-03T13:07:02.203Z,28288
2017-02-03T13:08:01.790Z,29632
2017-02-03T13:09:02.144Z,27680
2017-02-03T13:10:01.765Z,28672
2017-02-03T13:11:02.124Z,25376
2017-02-03T13:12:02.125Z,25312
2017-02-03T13:13:01.719Z,21824
2017-02-03T13:14:01.703Z,26880
2017-02-03T13:15:01.681Z,31648
2017-02-03T13:16:01.668Z,32608
2017-02-03T13:17:01.655Z,28352
2017-02-03T13:18:02.018Z,39104
2017-02-03T13:19:01.243Z,24864
2017-02-03T13:20:01.999Z,23360
2017-02-03T13:21:01.595Z,30880
2017-02-03T13:22:01.597Z,34848
2017-02-03T13:23:01.574Z,36864
2017-02-03T13:24:01.167Z,40128
2017-02-03T13:25:01.168Z,47392
2017-02-03T13:26:01.537Z,32768
2017-02-03T13:27:01.153Z,28320
2017-02-03T13:28:00.724Z,25760
2017-02-03T13:29:01.876Z,28864
2017-02-03T13:30:01.465Z,25440
2017-02-03T13:31:01.443Z,22336
2017-02-03T13:32:01.810Z,28608
2017-02-03T13:33:01.801Z,21920
2017-02-03T13:34:01.401Z,22560
2017-02-03T13:35:01.767Z,34048
2017-02-03T13:36:01.371Z,25824
2017-02-03T13:37:01.789Z,24000
2017-02-03T13:38:01.717Z,21216
2017-02-03T13:39:01.313Z,20896
2017-02-03T13:40:01.298Z,19136
2017-02-03T13:41:01.661Z,17088
2017-02-03T13:42:01.266Z,18080
2017-02-03T13:43:01.243Z,19360
2017-02-03T13:44:01.623Z,19808
2017-02-03T13:45:01.221Z,22880
2017-02-03T13:46:01.581Z,29152